createdAt,value
2023-02-26T00:00:38.457Z,1013.36
2023-02-26T00:01:48.654Z,1013.36
2023-02-26T00:02:51.457Z,1013.35
2023-02-26T00:03:55.464Z,1013.37
2023-02-26T00:04:59.641Z,1013.37
2023-02-26T00:06:03.767Z,1013.39
2023-02-26T00:07:08.033Z,1013.42
2023-02-26T00:08:12.062Z,1013.45
2023-02-26T00:09:16.170Z,1013.46
2023-02-26T00:10:20.351Z,1013.50
2023-02-26T00:11:24.665Z,1013.49
2023-02-26T00:12:28.677Z,1013.48
2023-02-26T00:13:32.802Z,1013.51
2023-02-26T00:14:37.066Z,1013.53
2023-02-26T00:15:41.174Z,1013.58
2023-02-26T00:16:45.378Z,1013.59
2023-02-26T00:17:49.453Z,1013.60
2023-02-26T00:19:07.700Z,1013.65
2023-02-26T00:20:24.740Z,1013.67
2023-02-26T00:21:27.428Z,1013.68
2023-02-26T00:22:31.550Z,1013.69
2023-02-26T00:23:35.593Z,1013.70
2023-02-26T00:24:39.763Z,1013.73
2023-02-26T00:25:43.935Z,1013.77
2023-02-26T00:26:47.932Z,1013.77
2023-02-26T00:27:52.205Z,1013.79
2023-02-26T00:28:56.258Z,1013.82
2023-02-26T00:30:00.469Z,1013.85
2023-02-26T00:31:04.641Z,1013.86
2023-02-26T00:32:08.879Z,1013.91
2023-02-26T00:33:12.817Z,1013.94
2023-02-26T00:34:17.006Z,1013.91
2023-02-26T00:35:21.135Z,1013.94
2023-02-26T00:36:25.813Z,1013.94
2023-02-26T00:37:29.400Z,1013.97
2023-02-26T00:38:33.589Z,1013.98
2023-02-26T00:39:37.744Z,1014.00
2023-02-26T00:40:41.969Z,1014.01
2023-02-26T00:41:46.066Z,1014.05
2023-02-26T00:42:50.249Z,1014.08
2023-02-26T00:43:54.358Z,1014.07
2023-02-26T00:45:01.491Z,1014.11
2023-02-26T00:46:04.600Z,1014.13
2023-02-26T00:47:08.662Z,1014.13
2023-02-26T00:48:12.873Z,1014.16
2023-02-26T00:49:16.900Z,1014.16
2023-02-26T00:50:21.076Z,1014.13
2023-02-26T00:51:25.085Z,1014.12
2023-02-26T00:52:29.440Z,1014.14
2023-02-26T00:53:33.413Z,1014.17
2023-02-26T00:54:37.502Z,1014.18
2023-02-26T00:55:55.859Z,1014.22
2023-02-26T00:56:58.775Z,1014.22
2023-02-26T00:58:02.905Z,1014.26
2023-02-26T00:59:07.224Z,1014.25
2023-02-26T01:00:11.219Z,1014.23
2023-02-26T01:01:15.458Z,1014.25
2023-02-26T01:02:20.405Z,1014.23
2023-02-26T01:03:24.156Z,1014.22
2023-02-26T01:04:28.268Z,1014.28
2023-02-26T01:05:32.383Z,1014.27
2023-02-26T01:06:36.515Z,1014.28
2023-02-26T01:07:40.659Z,1014.29
2023-02-26T01:08:44.765Z,1014.27
2023-02-26T01:09:48.937Z,1014.29
2023-02-26T01:10:52.929Z,1014.31
2023-02-26T01:11:57.049Z,1014.33
2023-02-26T01:13:01.277Z,1014.34
2023-02-26T01:14:19.527Z,1014.34
2023-02-26T01:15:22.399Z,1014.34
2023-02-26T01:16:26.699Z,1014.34
2023-02-26T01:17:30.526Z,1014.35
2023-02-26T01:18:34.672Z,1014.35
2023-02-26T01:19:39.020Z,1014.35
2023-02-26T01:20:43.063Z,1014.38
2023-02-26T01:21:47.163Z,1014.39
2023-02-26T01:22:51.386Z,1014.38
2023-02-26T01:23:55.451Z,1014.40
2023-02-26T01:24:59.502Z,1014.43
2023-02-26T01:26:03.583Z,1014.40
2023-02-26T01:27:07.797Z,1014.41
2023-02-26T01:28:11.990Z,1014.41
2023-02-26T01:29:16.085Z,1014.45
2023-02-26T01:30:20.285Z,1014.44
2023-02-26T01:31:24.433Z,1014.44
2023-02-26T01:32:28.743Z,1014.46
2023-02-26T01:33:32.669Z,1014.46
2023-02-26T01:34:36.923Z,1014.47
2023-02-26T01:35:41.102Z,1014.48
2023-02-26T01:36:45.270Z,1014.51
2023-02-26T01:37:49.521Z,1014.51
2023-02-26T01:38:53.603Z,1014.52
2023-02-26T01:40:03.818Z,1014.53
2023-02-26T01:41:06.636Z,1014.53
2023-02-26T01:42:10.755Z,1014.55
2023-02-26T01:43:14.910Z,1014.54
2023-02-26T01:44:19.014Z,1014.57
2023-02-26T01:45:23.207Z,1014.57
2023-02-26T01:46:27.238Z,1014.61
2023-02-26T01:47:31.414Z,1014.61
2023-02-26T01:48:35.546Z,1014.61
2023-02-26T01:49:39.743Z,1014.62
2023-02-26T01:50:43.749Z,1014.62
2023-02-26T01:51:50.826Z,1014.63
2023-02-26T01:52:54.029Z,1014.63
2023-02-26T01:53:58.128Z,1014.67
2023-02-26T01:55:02.154Z,1014.66
2023-02-26T01:56:06.265Z,1014.65
2023-02-26T01:57:10.504Z,1014.67
2023-02-26T01:58:14.571Z,1014.67
2023-02-26T01:59:18.693Z,1014.70
2023-02-26T02:00:22.953Z,1014.71
2023-02-26T02:01:27.058Z,1014.71
2023-02-26T02:02:31.194Z,1014.71
2023-02-26T02:03:35.255Z,1014.74
2023-02-26T02:04:39.351Z,1014.75
2023-02-26T02:05:43.386Z,1014.72
2023-02-26T02:06:47.607Z,1014.77
2023-02-26T02:07:51.706Z,1014.77
2023-02-26T02:08:55.848Z,1014.82
2023-02-26T02:09:59.867Z,1014.82
2023-02-26T02:11:04.049Z,1014.86
2023-02-26T02:13:34.717Z,1014.86
2023-02-26T02:14:38.766Z,1014.89
2023-02-26T02:15:42.856Z,1014.90
2023-02-26T02:16:47.122Z,1014.92
2023-02-26T02:17:51.031Z,1014.92
2023-02-26T02:18:55.221Z,1014.93
2023-02-26T02:19:59.331Z,1014.96
2023-02-26T02:21:03.480Z,1014.97
2023-02-26T02:22:07.590Z,1015.00
2023-02-26T02:23:11.628Z,1015.00
2023-02-26T02:24:15.792Z,1015.02
2023-02-26T02:25:19.937Z,1015.02
2023-02-26T02:26:24.675Z,1015.04
2023-02-26T02:27:28.174Z,1015.05
2023-02-26T02:28:33.343Z,1015.06
2023-02-26T02:29:37.055Z,1015.10
2023-02-26T02:30:41.180Z,1015.15
2023-02-26T02:31:45.515Z,1015.17
2023-02-26T02:32:49.562Z,1015.17
2023-02-26T02:33:53.563Z,1015.22
2023-02-26T02:34:57.661Z,1015.24
2023-02-26T02:36:01.836Z,1015.27
2023-02-26T02:37:06.056Z,1015.26
2023-02-26T02:38:10.158Z,1015.30
2023-02-26T02:39:14.289Z,1015.35
2023-02-26T02:40:18.470Z,1015.37
2023-02-26T02:41:22.547Z,1015.38
2023-02-26T02:42:26.772Z,1015.39
2023-02-26T02:43:30.790Z,1015.41
2023-02-26T02:44:35.049Z,1015.41
2023-02-26T02:45:39.186Z,1015.44
2023-02-26T02:46:43.199Z,1015.43
2023-02-26T02:47:47.324Z,1015.44
2023-02-26T02:48:51.522Z,1015.44
2023-02-26T02:49:55.653Z,1015.47
2023-02-26T02:50:59.796Z,1015.48
2023-02-26T02:52:04.043Z,1015.54
2023-02-26T02:53:08.076Z,1015.56
2023-02-26T02:54:12.206Z,1015.57
2023-02-26T02:55:16.327Z,1015.59
2023-02-26T02:56:20.505Z,1015.61
2023-02-26T02:57:24.560Z,1015.63
2023-02-26T02:58:28.760Z,1015.65
2023-02-26T02:59:32.859Z,1015.65
2023-02-26T03:00:37.065Z,1015.67
2023-02-26T03:01:41.103Z,1015.68
2023-02-26T03:02:45.413Z,1015.70
2023-02-26T03:03:49.464Z,1015.72
2023-02-26T03:04:53.715Z,1015.74
2023-02-26T03:05:57.803Z,1015.77
2023-02-26T03:07:01.870Z,1015.76
2023-02-26T03:08:05.898Z,1015.76
2023-02-26T03:09:10.214Z,1015.76
2023-02-26T03:10:14.345Z,1015.78
2023-02-26T03:11:18.483Z,1015.80
2023-02-26T03:12:22.642Z,1015.81
2023-02-26T03:13:26.734Z,1015.84
2023-02-26T03:14:30.941Z,1015.84
2023-02-26T03:15:34.935Z,1015.82
2023-02-26T03:16:53.230Z,1015.83
2023-02-26T03:17:55.947Z,1015.88
2023-02-26T03:19:00.054Z,1015.85
2023-02-26T03:20:04.240Z,1015.87
2023-02-26T03:21:08.320Z,1015.86
2023-02-26T03:22:12.397Z,1015.89
2023-02-26T03:23:16.398Z,1015.90
2023-02-26T03:24:20.510Z,1015.93
2023-02-26T03:25:24.587Z,1015.91
2023-02-26T03:26:29.068Z,1015.92
2023-02-26T03:27:32.827Z,1015.94
2023-02-26T03:28:36.990Z,1015.94
2023-02-26T03:29:41.098Z,1015.97
2023-02-26T03:30:45.249Z,1015.99
2023-02-26T03:31:49.490Z,1016.00
2023-02-26T03:32:53.445Z,1015.99
2023-02-26T03:33:57.612Z,1016.01
2023-02-26T03:35:01.764Z,1016.00
2023-02-26T03:36:05.964Z,1016.01
2023-02-26T03:37:10.021Z,1016.02
2023-02-26T03:38:14.168Z,1016.05
2023-02-26T03:39:18.401Z,1016.03
2023-02-26T03:40:22.542Z,1016.05
2023-02-26T03:41:26.797Z,1016.03
2023-02-26T03:42:30.749Z,1016.04
2023-02-26T03:43:34.888Z,1016.09
2023-02-26T03:44:39.054Z,1016.09
2023-02-26T03:45:43.479Z,1016.09
2023-02-26T03:46:47.255Z,1016.11
2023-02-26T03:47:51.492Z,1016.11
2023-02-26T03:48:55.626Z,1016.11
2023-02-26T03:49:59.700Z,1016.13
2023-02-26T03:51:03.855Z,1016.15
2023-02-26T03:52:08.132Z,1016.21
2023-02-26T03:53:12.095Z,1016.20
2023-02-26T03:54:30.318Z,1016.20
2023-02-26T03:55:33.016Z,1016.22
2023-02-26T03:56:37.058Z,1016.25
2023-02-26T03:57:41.234Z,1016.26
2023-02-26T03:58:45.304Z,1016.26
2023-02-26T03:59:49.348Z,1016.26
2023-02-26T04:00:53.597Z,1016.29
2023-02-26T04:01:57.728Z,1016.28
2023-02-26T04:03:01.802Z,1016.30
2023-02-26T04:04:05.970Z,1016.32
2023-02-26T04:05:13.232Z,1016.34
2023-02-26T04:06:16.299Z,1016.36
2023-02-26T04:07:20.535Z,1016.40
2023-02-26T04:08:24.430Z,1016.41
2023-02-26T04:09:28.699Z,1016.44
2023-02-26T04:10:32.782Z,1016.45
2023-02-26T04:11:36.959Z,1016.46
2023-02-26T04:12:41.115Z,1016.44
2023-02-26T04:13:45.086Z,1016.44
2023-02-26T04:14:49.345Z,1016.45
2023-02-26T04:15:53.456Z,1016.48
2023-02-26T04:16:57.582Z,1016.50
2023-02-26T04:18:01.665Z,1016.51
2023-02-26T04:19:05.778Z,1016.52
2023-02-26T04:20:09.953Z,1016.53
2023-02-26T04:21:14.143Z,1016.52
2023-02-26T04:22:18.407Z,1016.52
2023-02-26T04:23:22.496Z,1016.53
2023-02-26T04:24:26.628Z,1016.59
2023-02-26T04:25:30.748Z,1016.62
2023-02-26T04:26:34.932Z,1016.63
2023-02-26T04:27:39.132Z,1016.67
2023-02-26T04:28:43.149Z,1016.69
2023-02-26T04:29:47.328Z,1016.70
2023-02-26T04:30:51.738Z,1016.71
2023-02-26T04:31:55.616Z,1016.74
2023-02-26T04:32:59.546Z,1016.77
2023-02-26T04:34:03.707Z,1016.78
2023-02-26T04:35:07.940Z,1016.77
2023-02-26T04:36:11.936Z,1016.80
2023-02-26T04:37:16.125Z,1016.81
2023-02-26T04:38:20.291Z,1016.82
2023-02-26T04:39:24.384Z,1016.84
2023-02-26T04:40:28.615Z,1016.84
2023-02-26T04:41:32.603Z,1016.83
2023-02-26T04:42:36.788Z,1016.82
2023-02-26T04:43:41.048Z,1016.86
2023-02-26T04:44:45.064Z,1016.87
2023-02-26T04:45:49.207Z,1016.90
2023-02-26T04:46:53.381Z,1016.89
2023-02-26T04:47:57.532Z,1016.89
2023-02-26T04:49:01.613Z,1016.90
2023-02-26T04:50:05.692Z,1016.92
2023-02-26T04:51:09.817Z,1016.90
2023-02-26T04:52:13.962Z,1016.93
2023-02-26T04:53:18.046Z,1016.92
2023-02-26T04:54:22.152Z,1016.94
2023-02-26T04:55:26.206Z,1016.94
2023-02-26T04:56:30.344Z,1016.94
2023-02-26T04:57:34.496Z,1016.93
2023-02-26T04:58:38.798Z,1016.93
2023-02-26T04:59:43.135Z,1016.93
2023-02-26T05:00:47.132Z,1016.94
2023-02-26T05:01:51.413Z,1016.94
2023-02-26T05:03:09.424Z,1016.94
2023-02-26T05:04:12.543Z,1016.95
2023-02-26T05:05:16.483Z,1016.94
2023-02-26T05:06:20.741Z,1016.95
2023-02-26T05:07:24.856Z,1016.95
2023-02-26T05:08:28.968Z,1016.99
2023-02-26T05:09:39.212Z,1017.00
2023-02-26T05:10:41.949Z,1017.02
2023-02-26T05:11:46.034Z,1017.01
2023-02-26T05:12:50.250Z,1017.05
2023-02-26T05:13:54.299Z,1017.09
2023-02-26T05:14:58.481Z,1017.13
2023-02-26T05:16:02.672Z,1017.17
2023-02-26T05:17:06.630Z,1017.21
2023-02-26T05:18:10.852Z,1017.23
2023-02-26T05:19:14.918Z,1017.26
2023-02-26T05:20:19.053Z,1017.27
2023-02-26T05:21:26.051Z,1017.31
2023-02-26T05:22:27.273Z,1017.33
2023-02-26T05:23:31.377Z,1017.37
2023-02-26T05:24:35.595Z,1017.34
2023-02-26T05:25:39.610Z,1017.38
2023-02-26T05:26:43.824Z,1017.37
2023-02-26T05:27:48.023Z,1017.37
2023-02-26T05:28:52.163Z,1017.38
2023-02-26T05:29:56.252Z,1017.39
2023-02-26T05:31:14.459Z,1017.40
2023-02-26T05:32:17.192Z,1017.44
2023-02-26T05:33:21.231Z,1017.47
2023-02-26T05:34:25.379Z,1017.48
2023-02-26T05:35:29.544Z,1017.48
2023-02-26T05:36:33.597Z,1017.50
2023-02-26T05:37:37.875Z,1017.52
2023-02-26T05:38:42.018Z,1017.49
2023-02-26T05:39:46.159Z,1017.48
2023-02-26T05:40:50.191Z,1017.49
2023-02-26T05:41:54.338Z,1017.47
2023-02-26T05:42:58.584Z,1017.51
2023-02-26T05:44:02.541Z,1017.49
2023-02-26T05:45:06.848Z,1017.51
2023-02-26T05:46:10.902Z,1017.51
2023-02-26T05:47:15.078Z,1017.52
2023-02-26T05:48:19.174Z,1017.54
2023-02-26T05:49:23.166Z,1017.58
2023-02-26T05:50:27.456Z,1017.62
2023-02-26T05:51:31.632Z,1017.66
2023-02-26T05:52:35.797Z,1017.66
2023-02-26T05:53:39.930Z,1017.69
2023-02-26T05:54:44.090Z,1017.71
2023-02-26T05:55:48.332Z,1017.70
2023-02-26T05:56:52.380Z,1017.72
2023-02-26T05:57:56.588Z,1017.72
2023-02-26T05:59:00.574Z,1017.75
2023-02-26T06:00:04.607Z,1017.76
2023-02-26T06:01:08.828Z,1017.80
2023-02-26T06:02:13.052Z,1017.83
2023-02-26T06:03:17.141Z,1017.86
2023-02-26T06:04:21.126Z,1017.88
2023-02-26T06:05:25.292Z,1017.90
2023-02-26T06:06:29.414Z,1017.91
2023-02-26T06:07:33.537Z,1017.95
2023-02-26T06:08:37.792Z,1017.97
2023-02-26T06:09:41.963Z,1017.98
2023-02-26T06:10:46.258Z,1018.00
2023-02-26T06:11:50.382Z,1018.03
2023-02-26T06:12:54.377Z,1018.01
2023-02-26T06:13:58.587Z,1018.00
2023-02-26T06:15:02.700Z,1018.03
2023-02-26T06:16:06.962Z,1018.04
2023-02-26T06:17:11.044Z,1018.06
2023-02-26T06:18:15.284Z,1018.07
2023-02-26T06:19:19.482Z,1018.09
2023-02-26T06:20:23.644Z,1018.11
2023-02-26T06:21:27.845Z,1018.13
2023-02-26T06:22:31.937Z,1018.15
2023-02-26T06:23:36.112Z,1018.19
2023-02-26T06:24:40.230Z,1018.21
2023-02-26T06:25:44.329Z,1018.22
2023-02-26T06:26:48.505Z,1018.22
2023-02-26T06:27:52.526Z,1018.21
2023-02-26T06:28:56.721Z,1018.21
2023-02-26T06:30:00.872Z,1018.21
2023-02-26T06:31:05.062Z,1018.24
2023-02-26T06:32:09.296Z,1018.24
2023-02-26T06:33:13.292Z,1018.27
2023-02-26T06:34:17.500Z,1018.25
2023-02-26T06:35:21.657Z,1018.30
2023-02-26T06:36:26.199Z,1018.33
2023-02-26T06:37:29.863Z,1018.38
2023-02-26T06:38:34.059Z,1018.41
2023-02-26T06:39:38.095Z,1018.41
2023-02-26T06:40:42.246Z,1018.45
2023-02-26T06:41:46.510Z,1018.45
2023-02-26T06:42:50.599Z,1018.48
2023-02-26T06:43:54.875Z,1018.51
2023-02-26T06:44:58.947Z,1018.50
2023-02-26T06:46:03.217Z,1018.53
2023-02-26T06:47:07.288Z,1018.56
2023-02-26T06:48:11.481Z,1018.61
2023-02-26T06:49:15.623Z,1018.58
2023-02-26T06:50:19.745Z,1018.61
2023-02-26T06:51:23.855Z,1018.61
2023-02-26T06:52:27.863Z,1018.61
2023-02-26T06:53:32.105Z,1018.60
2023-02-26T06:54:36.315Z,1018.62
2023-02-26T06:55:40.502Z,1018.63
2023-02-26T06:56:44.612Z,1018.64
2023-02-26T06:57:48.841Z,1018.63
2023-02-26T06:58:53.067Z,1018.63
2023-02-26T06:59:57.244Z,1018.68
2023-02-26T07:01:01.226Z,1018.67
2023-02-26T07:02:05.381Z,1018.70
2023-02-26T07:03:09.333Z,1018.72
2023-02-26T07:04:13.636Z,1018.74
2023-02-26T07:05:17.726Z,1018.74
2023-02-26T07:06:27.808Z,1018.74
2023-02-26T07:07:25.982Z,1018.75
2023-02-26T07:08:30.101Z,1018.76
2023-02-26T07:09:34.231Z,1018.79
2023-02-26T07:10:38.246Z,1018.80
2023-02-26T07:11:42.386Z,1018.86
2023-02-26T07:12:46.545Z,1018.85
2023-02-26T07:13:50.759Z,1018.87
2023-02-26T07:14:54.923Z,1018.87
2023-02-26T07:15:59.016Z,1018.88
2023-02-26T07:17:03.349Z,1018.91
2023-02-26T07:18:07.402Z,1018.93
2023-02-26T07:19:11.466Z,1018.95
2023-02-26T07:20:15.668Z,1018.96
2023-02-26T07:21:19.942Z,1018.98
2023-02-26T07:22:23.945Z,1019.00
2023-02-26T07:23:31.141Z,1018.99
2023-02-26T07:24:34.297Z,1018.97
2023-02-26T07:25:38.544Z,1019.01
2023-02-26T07:26:42.628Z,1019.01
2023-02-26T07:27:46.775Z,1019.03
2023-02-26T07:28:50.948Z,1019.01
2023-02-26T07:29:55.030Z,1019.02
2023-02-26T07:30:59.286Z,1019.05
2023-02-26T07:32:03.534Z,1019.10
2023-02-26T07:33:07.724Z,1019.10
2023-02-26T07:34:17.828Z,1019.11
2023-02-26T07:35:20.487Z,1019.15
2023-02-26T07:36:24.888Z,1019.16
2023-02-26T07:37:28.762Z,1019.19
2023-02-26T07:38:32.857Z,1019.18
2023-02-26T07:39:37.068Z,1019.22
2023-02-26T07:40:41.153Z,1019.20
2023-02-26T07:41:45.289Z,1019.22
2023-02-26T07:42:49.512Z,1019.24
2023-02-26T07:43:53.641Z,1019.22
2023-02-26T07:44:57.699Z,1019.21
2023-02-26T07:46:02.017Z,1019.23
2023-02-26T07:47:06.026Z,1019.24
2023-02-26T07:48:10.148Z,1019.25
2023-02-26T07:49:14.276Z,1019.29
2023-02-26T07:50:18.489Z,1019.26
2023-02-26T07:51:22.914Z,1019.26
2023-02-26T07:52:26.794Z,1019.30
2023-02-26T07:53:30.962Z,1019.34
2023-02-26T07:54:35.089Z,1019.35
2023-02-26T07:55:39.388Z,1019.35
2023-02-26T07:56:43.429Z,1019.36
2023-02-26T07:57:47.633Z,1019.33
2023-02-26T07:58:51.722Z,1019.36
2023-02-26T07:59:55.950Z,1019.37
2023-02-26T08:01:00.140Z,1019.39
2023-02-26T08:02:04.251Z,1019.38
2023-02-26T08:03:08.458Z,1019.37
2023-02-26T08:04:12.509Z,1019.37
2023-02-26T08:05:16.684Z,1019.40
2023-02-26T08:06:20.949Z,1019.41
2023-02-26T08:07:39.028Z,1019.44
2023-02-26T08:08:41.946Z,1019.38
2023-02-26T08:09:46.159Z,1019.42
2023-02-26T08:10:50.283Z,1019.37
2023-02-26T08:11:54.400Z,1019.41
2023-02-26T08:12:58.548Z,1019.41
2023-02-26T08:14:02.681Z,1019.42
2023-02-26T08:15:06.734Z,1019.44
2023-02-26T08:16:11.013Z,1019.43
2023-02-26T08:17:15.112Z,1019.41
2023-02-26T08:18:19.188Z,1019.43
2023-02-26T08:19:23.432Z,1019.44
2023-02-26T08:20:27.510Z,1019.44
2023-02-26T08:21:31.593Z,1019.45
2023-02-26T08:22:35.757Z,1019.48
2023-02-26T08:23:39.930Z,1019.50
2023-02-26T08:24:44.132Z,1019.52
2023-02-26T08:25:48.257Z,1019.55
2023-02-26T08:26:52.380Z,1019.53
2023-02-26T08:27:56.544Z,1019.54
2023-02-26T08:29:00.706Z,1019.56
2023-02-26T08:30:04.928Z,1019.56
2023-02-26T08:32:36.024Z,1019.59
2023-02-26T08:33:39.864Z,1019.60
2023-02-26T08:34:44.086Z,1019.60
2023-02-26T08:35:48.291Z,1019.64
2023-02-26T08:36:52.367Z,1019.64
2023-02-26T08:37:56.530Z,1019.65
2023-02-26T08:39:00.683Z,1019.64
2023-02-26T08:40:04.822Z,1019.67
2023-02-26T08:41:08.967Z,1019.70
2023-02-26T08:42:13.150Z,1019.72
2023-02-26T08:43:17.276Z,1019.72
2023-02-26T08:44:21.375Z,1019.73
2023-02-26T08:45:26.480Z,1019.76
2023-02-26T08:46:30.478Z,1019.79
2023-02-26T08:47:39.359Z,1019.80
2023-02-26T08:48:38.549Z,1019.79
2023-02-26T08:49:42.600Z,1019.82
2023-02-26T08:50:46.795Z,1019.86
2023-02-26T08:51:51.029Z,1019.87
2023-02-26T08:52:55.140Z,1019.89
2023-02-26T08:53:59.352Z,1019.90
2023-02-26T08:55:03.393Z,1019.92
2023-02-26T08:56:07.580Z,1019.93
2023-02-26T08:57:11.737Z,1019.94
2023-02-26T08:58:16.011Z,1019.99
2023-02-26T08:59:20.114Z,1019.97
2023-02-26T09:00:24.262Z,1019.97
2023-02-26T09:01:28.967Z,1019.98
2023-02-26T09:02:32.620Z,1020.00
2023-02-26T09:03:36.803Z,1020.03
2023-02-26T09:04:41.071Z,1020.03
2023-02-26T09:05:45.207Z,1020.04
2023-02-26T09:06:49.307Z,1020.04
2023-02-26T09:07:53.498Z,1020.07
2023-02-26T09:08:57.676Z,1020.07
2023-02-26T09:10:01.984Z,1020.04
2023-02-26T09:11:05.934Z,1020.05
2023-02-26T09:12:10.234Z,1020.04
2023-02-26T09:13:14.266Z,1020.07
2023-02-26T09:14:18.650Z,1020.08
2023-02-26T09:15:22.655Z,1020.11
2023-02-26T09:16:27.366Z,1020.15
2023-02-26T09:17:31.038Z,1020.17
2023-02-26T09:18:35.235Z,1020.19
2023-02-26T09:19:39.435Z,1020.21
2023-02-26T09:20:49.556Z,1020.21
2023-02-26T09:21:52.321Z,1020.22
2023-02-26T09:22:56.479Z,1020.23
2023-02-26T09:24:00.613Z,1020.20
2023-02-26T09:25:04.855Z,1020.21
2023-02-26T09:26:09.021Z,1020.22
2023-02-26T09:27:13.128Z,1020.25
2023-02-26T09:28:17.297Z,1020.27
2023-02-26T09:29:21.400Z,1020.31
2023-02-26T09:30:25.515Z,1020.29
2023-02-26T09:31:29.683Z,1020.32
2023-02-26T09:32:33.801Z,1020.35
2023-02-26T09:33:37.758Z,1020.35
2023-02-26T09:34:42.057Z,1020.34
2023-02-26T09:35:46.187Z,1020.32
2023-02-26T09:36:50.253Z,1020.35
2023-02-26T09:37:54.467Z,1020.39
2023-02-26T09:38:58.511Z,1020.38
2023-02-26T09:40:02.728Z,1020.42
2023-02-26T09:41:07.019Z,1020.44
2023-02-26T09:42:11.556Z,1020.45
2023-02-26T09:43:15.502Z,1020.47
2023-02-26T09:44:19.666Z,1020.50
2023-02-26T09:45:23.891Z,1020.53
2023-02-26T09:46:28.269Z,1020.54
2023-02-26T09:47:32.184Z,1020.51
2023-02-26T09:48:36.368Z,1020.55
2023-02-26T09:49:40.649Z,1020.52
2023-02-26T09:50:44.755Z,1020.55
2023-02-26T09:51:50.182Z,1020.57
2023-02-26T09:52:53.154Z,1020.58
2023-02-26T09:53:57.251Z,1020.57
2023-02-26T09:55:01.427Z,1020.56
2023-02-26T09:56:05.437Z,1020.55
2023-02-26T09:57:09.656Z,1020.55
2023-02-26T09:58:13.950Z,1020.56
2023-02-26T09:59:18.915Z,1020.57
2023-02-26T10:00:22.576Z,1020.64
2023-02-26T10:01:26.815Z,1020.61
2023-02-26T10:02:30.952Z,1020.64
2023-02-26T10:03:35.234Z,1020.69
2023-02-26T10:04:39.446Z,1020.73
2023-02-26T10:05:43.637Z,1020.71
2023-02-26T10:06:47.715Z,1020.73
2023-02-26T10:07:52.778Z,1020.77
2023-02-26T10:08:56.557Z,1020.79
2023-02-26T10:10:00.717Z,1020.80
2023-02-26T10:11:04.924Z,1020.82
2023-02-26T10:12:09.160Z,1020.83
2023-02-26T10:13:13.369Z,1020.85
2023-02-26T10:14:17.535Z,1020.86
2023-02-26T10:15:21.699Z,1020.91
2023-02-26T10:16:26.448Z,1020.93
2023-02-26T10:17:29.999Z,1020.93
2023-02-26T10:18:34.204Z,1020.95
2023-02-26T10:19:38.266Z,1020.95
2023-02-26T10:20:42.453Z,1021.00
2023-02-26T10:21:46.612Z,1020.99
2023-02-26T10:22:50.792Z,1021.00
2023-02-26T10:23:54.869Z,1021.03
2023-02-26T10:24:59.235Z,1021.03
2023-02-26T10:26:17.435Z,1021.03
2023-02-26T10:27:20.515Z,1021.08
2023-02-26T10:28:24.608Z,1021.08
2023-02-26T10:29:28.733Z,1021.02
2023-02-26T10:30:33.016Z,1021.06
2023-02-26T10:31:43.237Z,1021.03
2023-02-26T10:32:45.919Z,1021.02
2023-02-26T10:33:49.965Z,1021.01
2023-02-26T10:34:54.116Z,1021.03
2023-02-26T10:35:59.373Z,1021.02
2023-02-26T10:37:02.479Z,1021.07
2023-02-26T10:38:06.602Z,1021.03
2023-02-26T10:39:10.895Z,1021.07
2023-02-26T10:40:14.994Z,1021.07
2023-02-26T10:41:19.171Z,1021.07
2023-02-26T10:42:23.422Z,1021.08
2023-02-26T10:43:27.569Z,1021.11
2023-02-26T10:44:31.682Z,1021.13
2023-02-26T10:45:35.973Z,1021.11
2023-02-26T10:46:40.174Z,1021.14
2023-02-26T10:47:44.708Z,1021.13
2023-02-26T10:48:48.495Z,1021.13
2023-02-26T10:49:52.679Z,1021.15
2023-02-26T10:50:56.810Z,1021.15
2023-02-26T10:53:28.094Z,1021.22
2023-02-26T10:54:32.247Z,1021.24
2023-02-26T10:55:36.549Z,1021.26
2023-02-26T10:56:46.572Z,1021.25
2023-02-26T10:57:49.284Z,1021.26
2023-02-26T10:58:53.590Z,1021.24
2023-02-26T10:59:57.623Z,1021.26
2023-02-26T11:01:01.925Z,1021.26
2023-02-26T11:02:06.063Z,1021.25
2023-02-26T11:03:10.198Z,1021.26
2023-02-26T11:04:14.244Z,1021.24
2023-02-26T11:05:18.546Z,1021.24
2023-02-26T11:06:22.799Z,1021.26
2023-02-26T11:07:26.934Z,1021.27
2023-02-26T11:08:31.132Z,1021.27
2023-02-26T11:09:35.318Z,1021.29
2023-02-26T11:10:39.434Z,1021.25
2023-02-26T11:11:43.621Z,1021.25
2023-02-26T11:12:47.820Z,1021.23
2023-02-26T11:13:51.922Z,1021.27
2023-02-26T11:14:56.240Z,1021.24
2023-02-26T11:16:00.445Z,1021.23
2023-02-26T11:17:04.412Z,1021.27
2023-02-26T11:18:08.674Z,1021.31
2023-02-26T11:19:12.871Z,1021.32
2023-02-26T11:20:16.907Z,1021.32
2023-02-26T11:21:21.160Z,1021.36
2023-02-26T11:22:25.361Z,1021.39
2023-02-26T11:23:29.431Z,1021.41
2023-02-26T11:24:39.679Z,1021.42
2023-02-26T11:25:42.444Z,1021.46
2023-02-26T11:26:46.720Z,1021.48
2023-02-26T11:27:50.843Z,1021.49
2023-02-26T11:28:55.099Z,1021.47
2023-02-26T11:29:59.216Z,1021.50
2023-02-26T11:31:03.515Z,1021.54
2023-02-26T11:32:07.628Z,1021.54
2023-02-26T11:33:11.713Z,1021.58
2023-02-26T11:34:15.962Z,1021.59
2023-02-26T11:35:20.094Z,1021.57
2023-02-26T11:36:24.812Z,1021.57
2023-02-26T11:37:28.538Z,1021.57
2023-02-26T11:38:32.691Z,1021.55
2023-02-26T11:39:36.798Z,1021.54
2023-02-26T11:40:41.013Z,1021.50
2023-02-26T11:41:45.215Z,1021.48
2023-02-26T11:42:49.462Z,1021.46
2023-02-26T11:43:53.579Z,1021.45
2023-02-26T11:44:57.743Z,1021.44
2023-02-26T11:46:02.013Z,1021.41
2023-02-26T11:47:06.274Z,1021.45
2023-02-26T11:48:10.489Z,1021.46
2023-02-26T11:49:14.673Z,1021.46
2023-02-26T11:50:21.880Z,1021.47
2023-02-26T11:51:25.630Z,1021.45
2023-02-26T11:52:29.278Z,1021.48
2023-02-26T11:53:33.486Z,1021.51
2023-02-26T11:54:37.664Z,1021.51
2023-02-26T11:55:41.969Z,1021.54
2023-02-26T11:56:46.085Z,1021.54
2023-02-26T11:57:50.372Z,1021.55
2023-02-26T11:58:55.347Z,1021.56
2023-02-26T11:59:58.692Z,1021.55
2023-02-26T12:01:02.892Z,1021.57
2023-02-26T12:02:07.116Z,1021.58
2023-02-26T12:03:11.339Z,1021.56
2023-02-26T12:04:15.442Z,1021.56
2023-02-26T12:05:19.593Z,1021.56
2023-02-26T12:06:23.743Z,1021.53
2023-02-26T12:07:27.926Z,1021.55
2023-02-26T12:08:32.116Z,1021.54
2023-02-26T12:09:36.691Z,1021.55
2023-02-26T12:10:40.896Z,1021.56
2023-02-26T12:11:45.126Z,1021.52
2023-02-26T12:12:49.406Z,1021.47
2023-02-26T12:13:53.592Z,1021.45
2023-02-26T12:14:57.738Z,1021.46
2023-02-26T12:16:02.017Z,1021.44
2023-02-26T12:17:06.086Z,1021.44
2023-02-26T12:18:10.322Z,1021.46
2023-02-26T12:19:14.435Z,1021.48
2023-02-26T12:20:18.680Z,1021.49
2023-02-26T12:21:36.966Z,1021.48
2023-02-26T12:22:40.083Z,1021.47
2023-02-26T12:23:44.216Z,1021.50
2023-02-26T12:24:48.436Z,1021.44
2023-02-26T12:25:52.518Z,1021.47
2023-02-26T12:26:56.895Z,1021.42
2023-02-26T12:28:01.068Z,1021.43
2023-02-26T12:29:05.169Z,1021.43
2023-02-26T12:30:09.434Z,1021.42
2023-02-26T12:31:13.843Z,1021.43
2023-02-26T12:32:18.097Z,1021.44
2023-02-26T12:33:22.101Z,1021.43
2023-02-26T12:34:26.270Z,1021.46
2023-02-26T12:35:30.505Z,1021.44
2023-02-26T12:36:48.070Z,1021.45
2023-02-26T12:37:38.801Z,1021.49
2023-02-26T12:38:42.918Z,1021.50
2023-02-26T12:39:47.129Z,1021.53
2023-02-26T12:40:51.328Z,1021.58
2023-02-26T12:41:55.486Z,1021.58
2023-02-26T12:42:59.643Z,1021.59
2023-02-26T12:44:03.805Z,1021.57
2023-02-26T12:45:08.004Z,1021.57
2023-02-26T12:46:12.256Z,1021.53
2023-02-26T12:47:16.358Z,1021.50
2023-02-26T12:48:20.563Z,1021.47
2023-02-26T12:49:24.810Z,1021.50
2023-02-26T12:50:28.944Z,1021.50
2023-02-26T12:51:33.124Z,1021.54
2023-02-26T12:52:37.437Z,1021.54
2023-02-26T12:53:41.572Z,1021.63
2023-02-26T12:54:45.780Z,1021.61
2023-02-26T12:55:50.029Z,1021.62
2023-02-26T12:56:57.156Z,1021.62
2023-02-26T12:58:06.482Z,1021.64
2023-02-26T12:59:09.301Z,1021.66
2023-02-26T13:00:13.372Z,1021.65
2023-02-26T13:01:17.576Z,1021.67
2023-02-26T13:02:21.750Z,1021.67
2023-02-26T13:03:26.000Z,1021.67